メインページ
METAR-TAF:

METAR-TAF

空港 :

レイキャヴィーク, アイスランド

レイキャヴィーク空港

緯度: 64-08N, 経度: 021-54W, 海抜: 54m

現時点の気象観測

当レポートは51分前の11:00(UTC)に作成
東/南東の風 12kt、から南/南東の間で変化する
気温 11°C
湿度 66%
気圧 1008 hPa
視程10km以上
高度1900ftの千切れ雲あり
近辺でにわか雨

METAR: BIRK 241100Z 12012KT 090V150 9999 VCSH BKN019 11/05 Q1008

時間: 11:51 (11:51 UTC)

予報

当レポートは47分前の11:04(UTC)に作成
予報は24日の 12時(UTC)から 25日の 12時(UTC)まで有効
東/南東の風 10kt
視程10km以上
高度1700ftの雲は散在している
高度2500ftの千切れ雲あり
24日の 14時(UTC)から 24日の 17時(UTC)まで徐々に
変向風 5kt
確率 40% :
24日の 23時(UTC)から 25日の 09時(UTC)まで一時的に
視程: 5000m
高度1500ftの千切れ雲あり
高度2000ftの曇り
雨, 霧雨, 靄

TAF: BIRK 241104Z 2412/2512 12010KT 9999 SCT017 BKN025 TX14/2512Z TN08/2503Z BECMG 2414/2417 VRB05KT PROB40 TEMPO 2423/2509 5000 RADZ BR BKN015 OVC020

4,000以上の空港の気象観測と天気予報(METAR報とTAF報)

利用可能な観測所は地図上に黄色い丸と赤い丸で示す。

丸の上にカーソルを重ねると観測所名を参照できる。

次にクリックすると気象観測と天気予報を参照できる。

マップの切り替え:黒色「×」印の緑ボタンをクリックして拡大、「-」印の緑ボタンをクリックして縮小、緑色の三角印をクリックして隣りの地図に切り替え


METAR-TAF: